Time;durP1;ratioP1;P1;durP2;ratioP2;P2;SDS_P1;SDS_P2;PMS_P1;PMS_P2;Temp;Humidity;BMP_temperature;BMP_pressure;BME280_temperature;BME280_humidity;BME280_pressure;Samples;Min_cycle;Max_cycle;Signal;HPM_P1;HPM_P2
2023/07/15 00:00:52;;;;;;;4.88;3.50;;;23.20;65.80;;;;;;4976088;28;20030;-69
2023/07/15 00:03:18;;;;;;;4.93;3.20;;;23.20;65.90;;;;;;4977252;28;20034;-63
2023/07/15 00:05:45;;;;;;;6.22;3.72;;;23.10;65.90;;;;;;4977148;28;20031;-66
2023/07/15 00:08:12;;;;;;;5.13;3.38;;;23.10;66.00;;;;;;4977176;28;20035;-66
2023/07/15 00:10:42;;;;;;;6.38;3.88;;;23.10;66.10;;;;;;4976885;28;20011;-69
2023/07/15 00:13:15;;;;;;;5.32;3.92;;;23.10;66.10;;;;;;4977364;28;20030;-67
2023/07/15 00:15:42;;;;;;;;;;;23.10;66.20;;;;;;4977165;28;20030;-66
2023/07/15 00:18:14;;;;;;;7.22;3.85;;;23.10;67.30;;;;;;4976742;28;20013;-68
2023/07/15 00:20:44;;;;;;;4.90;3.83;;;23.00;66.20;;;;;;4976735;28;20034;-69
2023/07/15 00:23:29;;;;;;;6.07;3.83;;;23.00;66.20;;;;;;4976916;28;20038;-64
2023/07/15 00:25:55;;;;;;;6.22;3.80;;;22.90;66.60;;;;;;4976921;28;20022;-67
2023/07/15 00:28:21;;;;;;;6.10;4.28;;;23.00;66.40;;;;;;4976877;28;20369;-64
2023/07/15 00:30:52;;;;;;;6.22;4.25;;;23.00;66.50;;;;;;4976857;28;20046;-69
2023/07/15 00:33:19;;;;;;;6.32;4.50;;;22.90;66.60;;;;;;4976844;28;20027;-69
2023/07/15 00:35:45;;;;;;;6.85;4.20;;;22.90;66.60;;;;;;4976429;28;20030;-68
2023/07/15 00:38:12;;;;;;;6.32;4.40;;;22.90;66.70;;;;;;4976324;28;20061;-69
2023/07/15 00:40:42;;;;;;;7.65;4.00;;;22.90;66.90;;;;;;4976470;28;20133;-64
2023/07/15 00:43:45;;;;;;;7.50;4.40;;;22.90;66.90;;;;;;4976367;28;20130;-69
2023/07/15 00:46:26;;;;;;;7.50;4.83;;;22.90;67.30;;;;;;4976427;28;20085;-64
2023/07/15 00:49:00;;;;;;;7.90;4.60;;;22.80;67.30;;;;;;4976944;28;20042;-63
2023/07/15 00:51:28;;;;;;;6.22;4.10;;;22.80;67.30;;;;;;4976648;28;20022;-64
2023/07/15 00:53:54;;;;;;;5.47;4.22;;;22.70;67.30;;;;;;4976328;28;20030;-63
2023/07/15 00:56:22;;;;;;;6.50;4.45;;;22.70;67.40;;;;;;4976766;28;20042;-69
2023/07/15 00:58:50;;;;;;;6.78;4.00;;;22.70;67.50;;;;;;4976274;28;20030;-64
2023/07/15 01:01:17;;;;;;;8.13;3.95;;;22.70;67.70;;;;;;4976488;28;20388;-63
2023/07/15 01:03:45;;;;;;;5.55;3.90;;;22.70;67.80;;;;;;4976859;28;20031;-69
2023/07/15 01:06:15;;;;;;;7.03;4.13;;;22.60;67.80;;;;;;4976117;28;20023;-68
2023/07/15 01:08:41;;;;;;;6.30;4.00;;;22.70;67.80;;;;;;4976209;28;20554;-64
2023/07/15 01:11:07;;;;;;;8.40;3.92;;;22.60;67.70;;;;;;4980327;28;20201;-64
2023/07/15 01:13:34;;;;;;;6.93;4.13;;;22.60;67.60;;;;;;4980078;28;20030;-69
2023/07/15 01:16:00;;;;;;;6.10;4.07;;;22.70;67.70;;;;;;4979942;28;20027;-69
2023/07/15 01:18:28;;;;;;;5.78;4.00;;;22.70;67.60;;;;;;4980242;28;20035;-68
2023/07/15 01:20:58;;;;;;;6.50;4.25;;;22.60;67.70;;;;;;4980226;28;20121;-64
2023/07/15 01:23:28;;;;;;;7.40;4.55;;;22.60;67.70;;;;;;5010515;28;20114;-63
2023/07/15 01:25:57;;;;;;;6.30;3.88;;;22.60;67.70;;;;;;4980098;28;20023;-69
2023/07/15 01:28:24;;;;;;;6.15;4.47;;;22.50;67.70;;;;;;4980089;28;20498;-63
2023/07/15 01:30:50;;;;;;;5.97;4.65;;;22.50;67.70;;;;;;4979857;28;20027;-64
2023/07/15 01:33:18;;;;;;;7.15;4.53;;;22.50;67.80;;;;;;4979764;28;20165;-69
2023/07/15 01:35:48;;;;;;;6.82;4.43;;;22.50;67.80;;;;;;4979922;28;20026;-65
2023/07/15 01:38:15;;;;;;;8.57;4.38;;;22.40;68.00;;;;;;4979497;28;20062;-63
2023/07/15 01:40:42;;;;;;;5.90;3.75;;;22.40;68.20;;;;;;4978705;28;20028;-69
2023/07/15 01:43:09;;;;;;;6.00;3.97;;;22.30;68.40;;;;;;4980008;28;20031;-68
2023/07/15 01:45:36;;;;;;;5.93;3.60;;;22.30;68.40;;;;;;4979771;28;20157;-69
2023/07/15 01:48:04;;;;;;;6.30;3.80;;;22.30;68.60;;;;;;4979779;28;20015;-67
2023/07/15 01:50:31;;;;;;;5.70;4.03;;;22.20;68.70;;;;;;4979413;28;20038;-69
2023/07/15 01:52:58;;;;;;;7.72;4.35;;;22.30;68.80;;;;;;4979442;28;20457;-68
2023/07/15 01:55:24;;;;;;;7.18;4.07;;;22.20;69.00;;;;;;4979897;28;20445;-69
2023/07/15 01:57:50;;;;;;;6.35;3.85;;;22.20;69.00;;;;;;4979236;28;20031;-69
2023/07/15 02:00:16;;;;;;;5.50;4.00;;;22.20;69.20;;;;;;5011101;28;20023;-68
2023/07/15 02:02:43;;;;;;;5.95;4.10;;;22.20;69.20;;;;;;4979405;28;20035;-63
2023/07/15 02:05:09;;;;;;;6.45;4.10;;;22.20;69.10;;;;;;4979140;28;20027;-64
2023/07/15 02:07:35;;;;;;;6.28;4.13;;;22.20;69.30;;;;;;4979012;28;20122;-63
2023/07/15 02:10:01;;;;;;;4.85;3.65;;;22.10;69.50;;;;;;4979093;28;20030;-64
2023/07/15 02:12:28;;;;;;;6.57;3.78;;;22.20;69.50;;;;;;4979043;28;20039;-63
2023/07/15 02:14:54;;;;;;;5.95;4.05;;;22.10;69.50;;;;;;4978970;28;20076;-68
2023/07/15 02:17:23;;;;;;;5.25;3.53;;;22.10;69.50;;;;;;4979399;28;20332;-64
2023/07/15 02:19:49;;;;;;;6.60;4.00;;;22.10;69.50;;;;;;4978922;28;20027;-69
2023/07/15 02:22:15;;;;;;;7.00;4.20;;;22.10;69.60;;;;;;4977948;28;20053;-68
2023/07/15 02:24:41;;;;;;;7.13;4.53;;;22.10;69.60;;;;;;4978804;28;20444;-69
2023/07/15 02:27:07;;;;;;;5.53;4.03;;;22.10;69.70;;;;;;4978701;28;20113;-69
2023/07/15 02:29:33;;;;;;;6.07;4.10;;;22.00;69.80;;;;;;4979262;28;20437;-69
2023/07/15 02:31:59;;;;;;;6.78;4.15;;;22.00;69.80;;;;;;4979217;28;20027;-68
2023/07/15 02:34:25;;;;;;;5.25;3.88;;;22.00;69.90;;;;;;4979132;28;20027;-63
2023/07/15 02:36:52;;;;;;;4.82;3.60;;;21.90;70.10;;;;;;4978920;28;20035;-68
2023/07/15 02:39:18;;;;;;;6.22;4.10;;;21.90;70.00;;;;;;4978560;28;20030;-64
2023/07/15 02:41:46;;;;;;;6.25;3.90;;;21.90;70.20;;;;;;4978535;28;20073;-64
2023/07/15 02:44:12;;;;;;;6.18;4.28;;;21.90;70.20;;;;;;4978681;28;20074;-64
2023/07/15 02:46:38;;;;;;;9.63;4.30;;;21.90;70.10;;;;;;4978657;28;20049;-63
2023/07/15 02:49:04;;;;;;;6.22;3.70;;;21.80;70.20;;;;;;4978392;28;20337;-69
2023/07/15 02:51:30;;;;;;;9.07;4.57;;;21.80;70.20;;;;;;4978331;28;20077;-69
2023/07/15 02:54:01;;;;;;;7.30;3.97;;;21.80;70.30;;;;;;4978332;28;20015;-69
2023/07/15 02:56:27;;;;;;;5.10;3.72;;;21.70;70.20;;;;;;4978531;28;20042;-64
2023/07/15 02:58:56;;;;;;;7.70;3.40;;;21.70;70.40;;;;;;4978168;28;20531;-69
2023/07/15 03:01:22;;;;;;;8.52;4.10;;;21.70;70.50;;;;;;4978687;28;20035;-64
2023/07/15 03:03:48;;;;;;;5.25;3.85;;;21.70;70.50;;;;;;4978352;28;20023;-69
2023/07/15 03:06:14;;;;;;;6.90;4.50;;;21.70;70.50;;;;;;4977359;28;20150;-69
2023/07/15 03:08:40;;;;;;;7.10;3.75;;;21.70;70.40;;;;;;4977974;28;20023;-69
2023/07/15 03:11:09;;;;;;;6.10;3.72;;;21.70;70.40;;;;;;4978554;28;20027;-66
2023/07/15 03:13:35;;;;;;;6.45;3.95;;;21.70;70.40;;;;;;4977947;28;20029;-63
2023/07/15 03:16:01;;;;;;;7.10;3.97;;;21.70;70.40;;;;;;4978165;28;20048;-69
2023/07/15 03:18:28;;;;;;;5.53;3.80;;;21.70;70.40;;;;;;4977883;28;20030;-64
2023/07/15 03:20:56;;;;;;;6.35;4.05;;;21.70;70.50;;;;;;4977766;28;20038;-69
2023/07/15 03:23:22;;;;;;;8.48;4.35;;;21.70;70.50;;;;;;4977971;28;20042;-65
2023/07/15 03:25:48;;;;;;;6.80;4.20;;;21.70;70.60;;;;;;4977951;28;20097;-67
2023/07/15 03:28:14;;;;;;;6.25;3.60;;;21.70;70.40;;;;;;4977686;28;20106;-64
2023/07/15 03:30:41;;;;;;;5.38;3.58;;;21.70;70.40;;;;;;4978180;28;20429;-69
2023/07/15 03:33:07;;;;;;;5.63;3.60;;;21.70;70.40;;;;;;4977221;28;20027;-63
2023/07/15 03:35:33;;;;;;;7.93;3.90;;;21.70;70.40;;;;;;4977992;28;20030;-64
2023/07/15 03:37:59;;;;;;;6.50;3.80;;;21.70;70.40;;;;;;4977410;28;20150;-64
2023/07/15 03:40:25;;;;;;;5.53;3.72;;;21.70;70.40;;;;;;4977458;28;20066;-69
2023/07/15 03:42:53;;;;;;;7.90;3.53;;;21.60;70.40;;;;;;4977354;28;20127;-69
2023/07/15 03:45:19;;;;;;;5.15;3.38;;;21.60;70.50;;;;;;4977338;28;20030;-69
2023/07/15 03:47:45;;;;;;;6.05;3.47;;;21.70;70.50;;;;;;4977280;28;20051;-64
2023/07/15 03:50:11;;;;;;;6.22;3.65;;;21.60;70.50;;;;;;4977213;28;20074;-69
2023/07/15 03:52:37;;;;;;;9.30;3.80;;;21.70;70.50;;;;;;4977499;28;20101;-69
2023/07/15 03:55:05;;;;;;;6.43;3.35;;;21.70;70.50;;;;;;4977181;28;20038;-67
2023/07/15 03:57:31;;;;;;;4.97;3.40;;;21.60;70.40;;;;;;4977075;28;20019;-69
2023/07/15 03:59:57;;;;;;;4.57;3.13;;;21.70;70.40;;;;;;4977045;28;20461;-69
2023/07/15 04:02:23;;;;;;;5.75;3.22;;;21.70;70.30;;;;;;4977528;28;20026;-65
2023/07/15 04:04:49;;;;;;;3.85;3.00;;;21.70;70.20;;;;;;4977042;28;20110;-69
2023/07/15 04:07:16;;;;;;;10.02;3.83;;;21.80;70.20;;;;;;4976961;28;20102;-69
2023/07/15 04:09:42;;;;;;;3.63;2.95;;;21.90;70.20;;;;;;4976942;28;20322;-64
2023/07/15 04:12:09;;;;;;;7.03;3.58;;;21.90;70.10;;;;;;4977368;28;20027;-64
2023/07/15 04:14:35;;;;;;;6.35;3.10;;;21.90;69.90;;;;;;4977147;28;20053;-69
2023/07/15 04:17:01;;;;;;;4.30;3.20;;;21.90;69.80;;;;;;4976812;28;20417;-64
2023/07/15 04:19:26;;;;;;;6.57;3.30;;;21.90;69.90;;;;;;4976813;28;20038;-64
2023/07/15 04:21:52;;;;;;;4.50;2.97;;;22.00;69.80;;;;;;4976784;28;20078;-64
2023/07/15 04:24:18;;;;;;;5.78;3.30;;;22.00;69.90;;;;;;4976639;28;20397;-68
2023/07/15 04:26:45;;;;;;;6.18;3.30;;;22.10;69.90;;;;;;4976857;28;20097;-69
2023/07/15 04:29:12;;;;;;;4.82;3.30;;;22.20;69.80;;;;;;4976669;28;20022;-69
2023/07/15 04:31:38;;;;;;;4.65;3.15;;;22.40;69.80;;;;;;4976642;28;20464;-64
2023/07/15 04:34:04;;;;;;;4.80;3.58;;;22.40;69.70;;;;;;4976573;28;20058;-69
2023/07/15 04:36:31;;;;;;;7.30;3.75;;;22.60;69.40;;;;;;4976503;28;20089;-69
2023/07/15 04:38:56;;;;;;;5.65;3.55;;;22.80;68.90;;;;;;4976332;28;20054;-64
2023/07/15 04:41:22;;;;;;;5.97;3.85;;;22.90;68.50;;;;;;4975537;28;20039;-64
2023/07/15 04:43:48;;;;;;;5.82;3.65;;;23.10;68.30;;;;;;4976049;28;20038;-68
2023/07/15 04:46:15;;;;;;;6.00;3.47;;;23.20;68.10;;;;;;4976324;28;20037;-69
2023/07/15 04:48:41;;;;;;;5.57;3.13;;;23.60;68.10;;;;;;4976944;28;20058;-69
2023/07/15 04:51:07;;;;;;;5.00;3.05;;;24.30;67.10;;;;;;4976934;28;20468;-65
2023/07/15 04:53:33;;;;;;;5.18;3.00;;;25.40;65.00;;;;;;4976811;28;20341;-68
2023/07/15 04:55:59;;;;;;;4.20;3.08;;;26.50;62.50;;;;;;4976305;28;20019;-68
2023/07/15 04:58:25;;;;;;;5.68;3.22;;;27.80;60.10;;;;;;4976786;28;20062;-63
2023/07/15 05:00:51;;;;;;;6.65;3.10;;;28.90;57.50;;;;;;4976276;28;20026;-64
2023/07/15 05:03:17;;;;;;;4.20;2.58;;;30.00;55.50;;;;;;4976412;28;20035;-64
2023/07/15 05:05:46;;;;;;;4.22;2.90;;;31.10;53.50;;;;;;4976212;28;20058;-68
2023/07/15 05:08:17;;;;;;;5.45;2.88;;;32.10;51.60;;;;;;4976506;28;20031;-68
2023/07/15 05:10:45;;;;;;;3.42;2.60;;;33.10;49.80;;;;;;4976533;28;20030;-64
2023/07/15 05:13:11;;;;;;;3.13;2.58;;;34.00;48.10;;;;;;4976199;28;20062;-64
2023/07/15 05:15:38;;;;;;;4.85;3.10;;;34.80;46.50;;;;;;4976675;28;20036;-68
2023/07/15 05:18:05;;;;;;;6.80;2.88;;;35.50;44.20;;;;;;4976683;28;20463;-65
2023/07/15 05:20:31;;;;;;;5.95;3.15;;;36.10;42.60;;;;;;4976184;28;20074;-64
2023/07/15 05:22:57;;;;;;;3.75;3.00;;;36.70;41.30;;;;;;4976053;28;20031;-68
2023/07/15 05:25:23;;;;;;;5.90;2.97;;;37.30;40.20;;;;;;4976650;28;20027;-65
2023/07/15 05:27:49;;;;;;;6.68;2.88;;;37.80;39.00;;;;;;4976015;28;20428;-65
2023/07/15 05:30:16;;;;;;;4.70;2.95;;;38.30;38.10;;;;;;4976096;28;20487;-64
2023/07/15 05:32:42;;;;;;;4.75;3.10;;;38.70;37.70;;;;;;4976281;28;20074;-68
2023/07/15 05:35:08;;;;;;;4.55;2.70;;;39.20;37.50;;;;;;4976727;28;20030;-63
2023/07/15 05:37:34;;;;;;;4.38;2.78;;;39.40;37.00;;;;;;4976301;28;20051;-64
2023/07/15 05:40:00;;;;;;;3.70;2.65;;;39.70;37.00;;;;;;4976993;28;20019;-66
2023/07/15 05:42:26;;;;;;;4.13;2.63;;;40.30;36.60;;;;;;4976550;28;20041;-66
2023/07/15 05:44:52;;;;;;;3.83;2.90;;;40.70;35.30;;;;;;4975894;28;20242;-66
2023/07/15 05:47:19;;;;;;;4.90;3.10;;;41.00;34.10;;;;;;4976309;28;20110;-64
2023/07/15 05:49:45;;;;;;;4.90;3.08;;;41.40;33.30;;;;;;4975805;28;20030;-64
2023/07/15 05:52:11;;;;;;;5.53;2.70;;;41.80;32.70;;;;;;4975817;28;20031;-64
2023/07/15 05:54:37;;;;;;;6.05;2.67;;;42.20;32.10;;;;;;4975796;28;20344;-64
2023/07/15 05:57:03;;;;;;;3.72;2.50;;;42.70;31.70;;;;;;4979151;28;20042;-64
2023/07/15 05:59:29;;;;;;;4.97;2.70;;;43.30;31.40;;;;;;4979346;28;20106;-67
2023/07/15 06:01:55;;;;;;;4.72;2.90;;;43.80;31.20;;;;;;4979815;28;20432;-64
2023/07/15 06:04:24;;;;;;;3.78;2.88;;;44.10;30.40;;;;;;4979147;28;20069;-66
2023/07/15 06:06:50;;;;;;;4.30;2.65;;;44.50;29.90;;;;;;4979378;28;20026;-67
2023/07/15 06:09:16;;;;;;;4.68;3.00;;;44.90;29.10;;;;;;4979141;28;20045;-65
2023/07/15 06:11:42;;;;;;;3.30;2.47;;;45.20;28.40;;;;;;4979101;28;20046;-64
2023/07/15 06:14:08;;;;;;;5.40;2.92;;;45.50;28.00;;;;;;4979010;28;20112;-67
2023/07/15 06:16:34;;;;;;;3.35;2.67;;;46.00;27.30;;;;;;4979461;28;20459;-65
2023/07/15 06:19:00;;;;;;;4.20;2.80;;;46.30;26.60;;;;;;4979957;28;20093;-64
2023/07/15 06:21:26;;;;;;;5.95;2.50;;;46.60;26.40;;;;;;4978916;28;20031;-65
2023/07/15 06:23:52;;;;;;;3.22;2.20;;;46.90;26.40;;;;;;4978812;28;20378;-68
2023/07/15 06:26:19;;;;;;;4.57;2.50;;;47.30;26.30;;;;;;4978616;28;20030;-68
2023/07/15 06:28:45;;;;;;;3.55;2.20;;;47.70;26.20;;;;;;4979015;28;20034;-65
2023/07/15 06:31:11;;;;;;;2.97;2.20;;;48.10;25.70;;;;;;4978601;28;20038;-67
2023/07/15 06:33:37;;;;;;;5.07;2.40;;;48.40;25.50;;;;;;4979001;28;20031;-66
2023/07/15 06:36:04;;;;;;;2.60;2.38;;;48.40;25.20;;;;;;4979150;28;20061;-65
2023/07/15 06:38:30;;;;;;;3.75;2.50;;;48.60;24.60;;;;;;4978408;28;20055;-64
2023/07/15 06:40:58;;;;;;;4.50;2.33;;;48.70;24.40;;;;;;4978861;28;20026;-64
2023/07/15 06:43:24;;;;;;;3.90;2.50;;;48.60;24.30;;;;;;4978480;28;20031;-69
2023/07/15 06:45:50;;;;;;;3.28;2.55;;;48.80;23.90;;;;;;4978684;28;20468;-65
2023/07/15 06:48:17;;;;;;;3.80;2.53;;;48.70;23.70;;;;;;4979025;28;20065;-64
2023/07/15 06:50:43;;;;;;;6.13;2.72;;;48.00;23.70;;;;;;4978413;28;20015;-65
2023/07/15 06:53:09;;;;;;;4.07;2.25;;;46.50;24.70;;;;;;4977201;28;20049;-64
2023/07/15 06:55:36;;;;;;;4.43;2.20;;;44.90;25.80;;;;;;4971824;28;20030;-65
2023/07/15 06:58:03;;;;;;;6.07;2.67;;;43.30;27.10;;;;;;4976077;28;20031;-64
2023/07/15 07:00:30;;;;;;;3.88;2.50;;;41.70;28.60;;;;;;4976287;28;20411;-67
2023/07/15 07:02:55;;;;;;;3.00;2.42;;;40.30;30.30;;;;;;4976064;28;20078;-66
2023/07/15 07:05:21;;;;;;;4.93;2.60;;;39.20;31.60;;;;;;4976199;28;20101;-66
2023/07/15 07:07:47;;;;;;;3.53;2.78;;;38.20;32.90;;;;;;4974446;28;20023;-64
2023/07/15 07:10:13;;;;;;;3.80;2.35;;;37.40;34.10;;;;;;4977298;28;20460;-67
2023/07/15 07:12:39;;;;;;;5.72;2.78;;;37.00;34.90;;;;;;4978034;28;20027;-65
2023/07/15 07:15:06;;;;;;;5.65;2.72;;;36.70;35.60;;;;;;4977976;28;20369;-64
2023/07/15 07:17:32;;;;;;;4.20;2.70;;;36.40;36.00;;;;;;4977874;28;20094;-64
2023/07/15 07:19:59;;;;;;;4.45;2.60;;;36.10;36.40;;;;;;4978384;28;20130;-65
2023/07/15 07:22:25;;;;;;;4.80;2.50;;;35.70;36.90;;;;;;4978319;28;20034;-68
2023/07/15 07:24:52;;;;;;;8.32;2.72;;;35.50;37.30;;;;;;4977834;28;20034;-66
2023/07/15 07:27:18;;;;;;;4.85;2.70;;;35.30;37.60;;;;;;4977623;28;20030;-67
2023/07/15 07:29:45;;;;;;;5.25;2.83;;;35.00;38.00;;;;;;4977829;28;20102;-66
2023/07/15 07:32:11;;;;;;;4.55;2.80;;;34.80;38.60;;;;;;4977744;28;20106;-65
2023/07/15 07:34:37;;;;;;;5.43;2.97;;;34.70;38.90;;;;;;4978115;28;20038;-64
2023/07/15 07:37:04;;;;;;;5.70;2.85;;;34.60;39.00;;;;;;4976080;28;20038;-67
2023/07/15 07:39:30;;;;;;;5.45;2.75;;;34.50;39.30;;;;;;4977518;28;20375;-65
2023/07/15 07:41:56;;;;;;;4.75;2.90;;;34.40;39.30;;;;;;4977483;28;20077;-67
2023/07/15 07:44:22;;;;;;;7.82;3.13;;;34.20;39.60;;;;;;4977578;28;20023;-65
2023/07/15 07:46:49;;;;;;;4.28;2.85;;;34.20;39.80;;;;;;4977404;28;20089;-65
2023/07/15 07:49:15;;;;;;;5.18;2.70;;;34.00;40.10;;;;;;4977540;28;20073;-68
2023/07/15 07:51:41;;;;;;;4.50;3.00;;;33.90;40.30;;;;;;4976667;28;20447;-66
2023/07/15 07:54:07;;;;;;;5.32;3.20;;;33.90;40.50;;;;;;4977420;28;20105;-66
2023/07/15 07:56:33;;;;;;;5.43;3.40;;;33.80;40.70;;;;;;4973306;28;20067;-68
2023/07/15 07:59:01;;;;;;;5.68;3.40;;;33.70;40.90;;;;;;4977657;28;20054;-66
2023/07/15 08:01:28;;;;;;;5.72;3.28;;;33.60;41.20;;;;;;4977227;28;20448;-67
2023/07/15 08:03:55;;;;;;;6.75;3.35;;;33.40;41.40;;;;;;4976251;28;20038;-67
2023/07/15 08:06:25;;;;;;;8.18;3.75;;;33.40;41.80;;;;;;4976980;28;20552;-65
2023/07/15 08:08:51;;;;;;;8.30;3.30;;;33.30;41.80;;;;;;4976037;28;20105;-66
2023/07/15 08:11:17;;;;;;;6.90;3.30;;;33.20;41.70;;;;;;4976369;28;20026;-67
2023/07/15 08:13:43;;;;;;;5.22;3.10;;;33.10;41.50;;;;;;4976935;28;20030;-66
2023/07/15 08:16:36;;;;;;;4.43;3.08;;;33.00;41.80;;;;;;4977078;28;20030;-67
2023/07/15 08:19:05;;;;;;;4.90;3.05;;;33.10;41.90;;;;;;4974256;28;20334;-67
2023/07/15 08:21:31;;;;;;;10.15;3.75;;;33.20;41.80;;;;;;4974879;28;20448;-64
2023/07/15 08:23:57;;;;;;;4.95;3.40;;;33.30;42.10;;;;;;4974690;28;20031;-64
2023/07/15 08:26:25;;;;;;;6.32;3.47;;;33.40;42.40;;;;;;4974971;28;20050;-64
2023/07/15 08:28:51;;;;;;;4.38;3.10;;;33.40;42.30;;;;;;4974886;28;20400;-66
2023/07/15 08:31:19;;;;;;;5.30;3.33;;;33.40;42.50;;;;;;4975150;28;20070;-66
2023/07/15 08:33:45;;;;;;;5.63;3.17;;;33.40;42.60;;;;;;4976165;28;20045;-66
2023/07/15 08:36:11;;;;;;;6.72;3.33;;;33.40;42.60;;;;;;4975777;28;20038;-64
2023/07/15 08:38:37;;;;;;;4.63;3.13;;;33.40;42.80;;;;;;4975525;28;20256;-64
2023/07/15 08:41:03;;;;;;;5.88;3.70;;;33.40;42.90;;;;;;4975799;28;20457;-66
2023/07/15 08:43:30;;;;;;;4.78;3.40;;;33.50;42.90;;;;;;4975416;28;20042;-66
2023/07/15 08:46:00;;;;;;;5.10;3.30;;;33.50;43.00;;;;;;4974479;28;20023;-67
2023/07/15 08:48:26;;;;;;;6.93;3.92;;;33.50;43.00;;;;;;4974701;28;20018;-68
2023/07/15 08:50:57;;;;;;;7.68;4.20;;;33.50;43.00;;;;;;4974579;28;20039;-67
2023/07/15 08:53:27;;;;;;;6.25;3.67;;;33.40;43.20;;;;;;4975028;28;20023;-66
2023/07/15 08:55:56;;;;;;;7.80;4.13;;;33.40;43.30;;;;;;4975014;28;20080;-66
2023/07/15 08:58:23;;;;;;;4.57;3.33;;;33.40;43.30;;;;;;4976146;28;20467;-65
2023/07/15 09:00:50;;;;;;;6.97;3.45;;;33.40;43.60;;;;;;4975142;28;20440;-67
2023/07/15 09:03:16;;;;;;;4.38;3.22;;;33.40;43.60;;;;;;4975134;28;20106;-66
2023/07/15 09:05:43;;;;;;;7.25;4.00;;;33.40;43.60;;;;;;4976315;28;20031;-67
2023/07/15 09:08:15;;;;;;;6.63;3.72;;;33.40;43.80;;;;;;4976438;28;20034;-66
2023/07/15 09:10:58;;;;;;;6.20;3.70;;;33.40;43.70;;;;;;4975225;28;20027;-67
2023/07/15 09:13:25;;;;;;;;;;;33.50;43.50;;;;;;4975636;28;20038;-66
2023/07/15 09:15:53;;;;;;;5.85;3.53;;;33.50;43.50;;;;;;4976622;28;20379;-66
2023/07/15 09:18:21;;;;;;;6.95;3.53;;;33.50;43.50;;;;;;4976324;28;20026;-64
2023/07/15 09:20:48;;;;;;;6.32;3.55;;;33.40;43.60;;;;;;4976139;28;20027;-66
2023/07/15 09:23:14;;;;;;;5.45;3.58;;;33.40;43.80;;;;;;4975976;28;20027;-65
2023/07/15 09:25:50;;;;;;;7.65;3.50;;;33.40;44.00;;;;;;4976030;28;20026;-65
2023/07/15 09:28:16;;;;;;;6.35;3.42;;;33.40;44.10;;;;;;4976029;28;20080;-65
2023/07/15 09:30:41;;;;;;;5.75;3.53;;;33.50;44.00;;;;;;4977236;28;20140;-66
2023/07/15 09:33:07;;;;;;;7.88;3.53;;;33.40;44.00;;;;;;4979783;28;20504;-66
2023/07/15 09:35:37;;;;;;;5.57;3.85;;;33.40;44.20;;;;;;4979696;28;20084;-66
2023/07/15 09:38:08;;;;;;;6.65;3.42;;;33.30;44.60;;;;;;4979413;28;20055;-68
2023/07/15 09:40:43;;;;;;;7.80;3.38;;;33.30;44.90;;;;;;4979932;28;20026;-65
2023/07/15 09:43:09;;;;;;;8.20;3.80;;;33.30;45.30;;;;;;4978580;28;20034;-65
2023/07/15 09:45:38;;;;;;;5.40;3.90;;;33.30;45.60;;;;;;4979501;28;20027;-66
2023/07/15 09:48:08;;;;;;;5.90;3.50;;;33.40;45.70;;;;;;4979790;28;20022;-67
2023/07/15 09:50:36;;;;;;;7.65;3.60;;;33.40;45.80;;;;;;4978629;28;20388;-66
2023/07/15 09:53:03;;;;;;;4.70;3.72;;;33.50;45.90;;;;;;4979507;28;20105;-66
2023/07/15 09:55:30;;;;;;;7.05;3.78;;;33.60;45.80;;;;;;4979513;28;20058;-67
2023/07/15 09:58:07;;;;;;;5.60;3.90;;;33.50;45.80;;;;;;4979482;28;20039;-64
2023/07/15 10:00:35;;;;;;;9.35;4.32;;;33.40;46.00;;;;;;4979045;28;20031;-67
2023/07/15 10:03:03;;;;;;;7.65;4.00;;;33.30;46.40;;;;;;4979139;28;20042;-67
2023/07/15 10:05:31;;;;;;;7.25;4.18;;;33.20;46.50;;;;;;4975978;28;20081;-67
2023/07/15 10:07:59;;;;;;;8.13;4.28;;;33.10;46.70;;;;;;4978448;28;20031;-64
2023/07/15 10:10:25;;;;;;;6.70;3.83;;;33.10;46.80;;;;;;4978732;28;20356;-66
2023/07/15 10:12:52;;;;;;;8.55;4.38;;;33.10;46.80;;;;;;4979132;28;20498;-64
2023/07/15 10:15:18;;;;;;;6.38;4.43;;;33.20;46.80;;;;;;4974277;28;20045;-67
2023/07/15 10:17:46;;;;;;;6.78;3.80;;;33.20;46.70;;;;;;4975768;28;20121;-65
2023/07/15 10:20:17;;;;;;;7.57;4.38;;;33.10;46.80;;;;;;4974446;28;20023;-66
2023/07/15 10:22:43;;;;;;;9.07;4.70;;;33.10;46.80;;;;;;4978035;28;20372;-66
2023/07/15 10:25:11;;;;;;;8.88;4.43;;;33.00;46.80;;;;;;4978748;28;20019;-65
2023/07/15 10:27:40;;;;;;;7.97;4.32;;;32.90;47.10;;;;;;4978883;28;20027;-66
2023/07/15 10:30:17;;;;;;;6.70;3.80;;;32.90;47.20;;;;;;4979024;28;20029;-67
2023/07/15 10:33:03;;;;;;;8.13;4.38;;;33.00;47.20;;;;;;4978784;28;20023;-66
2023/07/15 10:35:34;;;;;;;5.82;4.13;;;33.10;47.00;;;;;;4977717;28;20031;-65
2023/07/15 10:38:23;;;;;;;8.55;4.30;;;33.00;47.00;;;;;;4977773;28;20058;-65
2023/07/15 10:40:59;;;;;;;7.22;4.50;;;32.90;47.10;;;;;;4977687;28;20113;-65
2023/07/15 10:43:34;;;;;;;6.05;4.25;;;32.80;47.50;;;;;;4976521;28;20077;-65
2023/07/15 10:46:11;;;;;;;8.85;4.03;;;32.70;47.90;;;;;;4977540;28;20027;-67
2023/07/15 10:48:38;;;;;;;6.85;4.22;;;32.70;48.30;;;;;;4979276;28;20046;-65
2023/07/15 10:51:07;;;;;;;6.18;4.07;;;32.70;48.40;;;;;;4961443;28;20109;-65
2023/07/15 10:53:33;;;;;;;9.90;4.35;;;32.70;48.50;;;;;;4978736;28;20035;-67
2023/07/15 10:56:00;;;;;;;6.47;4.40;;;32.90;48.40;;;;;;4978277;28;20041;-64
2023/07/15 10:58:27;;;;;;;5.65;4.00;;;32.90;48.30;;;;;;4978146;28;20031;-67
2023/07/15 11:01:07;;;;;;;7.10;3.72;;;32.90;48.30;;;;;;4978550;28;20034;-65
2023/07/15 11:03:43;;;;;;;5.75;4.10;;;33.00;48.10;;;;;;4978683;28;20030;-69
2023/07/15 11:06:10;;;;;;;9.05;4.47;;;33.00;47.80;;;;;;4976876;28;20440;-67
2023/07/15 11:08:40;;;;;;;5.82;4.20;;;32.90;47.90;;;;;;4978126;28;20341;-66
2023/07/15 11:11:09;;;;;;;6.30;4.50;;;33.00;47.90;;;;;;4978057;28;20409;-68
2023/07/15 11:13:37;;;;;;;7.30;4.20;;;33.10;47.60;;;;;;4977981;28;20117;-68
2023/07/15 11:16:04;;;;;;;5.95;4.07;;;33.10;47.50;;;;;;4978500;28;20429;-68
2023/07/15 11:18:31;;;;;;;6.78;4.40;;;33.20;47.50;;;;;;4977964;28;20031;-68
2023/07/15 11:20:58;;;;;;;7.13;4.60;;;33.30;47.30;;;;;;4977864;28;20027;-66
2023/07/15 11:23:28;;;;;;;5.97;4.30;;;33.40;47.00;;;;;;4977745;28;20042;-68
2023/07/15 11:25:57;;;;;;;7.65;4.85;;;33.40;46.70;;;;;;4977750;28;20512;-66
2023/07/15 11:28:23;;;;;;;12.48;5.22;;;33.30;46.90;;;;;;4977336;28;20384;-68
2023/07/15 11:30:49;;;;;;;6.45;4.40;;;33.30;47.10;;;;;;4978244;28;20161;-68
2023/07/15 11:33:16;;;;;;;5.38;4.00;;;33.30;47.00;;;;;;4977960;28;20034;-64
2023/07/15 11:35:44;;;;;;;6.15;4.03;;;33.30;47.00;;;;;;4978040;28;20038;-68
2023/07/15 11:38:14;;;;;;;8.02;4.40;;;33.30;47.20;;;;;;4977398;28;20055;-65
2023/07/15 11:40:52;;;;;;;7.75;4.57;;;33.40;47.30;;;;;;4977564;28;20527;-65
2023/07/15 11:43:19;;;;;;;10.32;5.40;;;33.40;47.10;;;;;;4977430;28;20455;-65
2023/07/15 11:45:46;;;;;;;8.35;4.57;;;33.30;47.00;;;;;;4977408;28;20019;-65
2023/07/15 11:48:18;;;;;;;6.05;4.53;;;33.10;47.20;;;;;;4977936;28;20026;-69
2023/07/15 11:50:43;;;;;;;10.02;5.07;;;33.00;47.30;;;;;;4977931;28;20027;-68
2023/07/15 11:53:32;;;;;;;8.63;4.50;;;33.00;47.50;;;;;;4977280;28;20411;-65
2023/07/15 11:55:58;;;;;;;7.82;4.63;;;33.10;47.30;;;;;;4977480;28;20034;-65
2023/07/15 11:58:42;;;;;;;6.43;4.60;;;33.30;47.10;;;;;;4977289;28;20027;-68
2023/07/15 12:01:12;;;;;;;7.75;4.32;;;33.40;46.90;;;;;;4977172;28;20125;-68
2023/07/15 12:03:40;;;;;;;7.30;4.55;;;33.50;46.80;;;;;;4977411;28;20058;-65
2023/07/15 12:06:14;;;;;;;6.80;4.65;;;33.50;46.60;;;;;;4976428;28;20057;-68
2023/07/15 12:08:40;;;;;;;6.25;4.60;;;33.50;46.40;;;;;;4977040;28;20063;-68
2023/07/15 12:11:07;;;;;;;7.50;4.47;;;33.40;46.50;;;;;;4977591;28;20030;-69
2023/07/15 12:13:33;;;;;;;9.18;4.30;;;33.30;46.70;;;;;;4977022;28;20065;-67
2023/07/15 12:16:00;;;;;;;5.80;4.13;;;33.30;47.00;;;;;;4977312;28;20027;-64
2023/07/15 12:18:26;;;;;;;6.00;4.20;;;33.30;47.00;;;;;;4977409;28;20030;-68
2023/07/15 12:20:52;;;;;;;7.03;4.60;;;33.40;47.20;;;;;;4976894;28;20023;-68
2023/07/15 12:23:18;;;;;;;5.10;4.13;;;33.50;47.10;;;;;;4976755;28;20034;-64
2023/07/15 12:25:44;;;;;;;9.82;4.80;;;33.60;47.00;;;;;;4976743;28;20027;-65
2023/07/15 12:28:10;;;;;;;7.82;4.53;;;33.60;46.70;;;;;;4976758;28;20030;-65
2023/07/15 12:30:36;;;;;;;8.30;4.90;;;33.50;46.60;;;;;;4977004;28;20034;-64
2023/07/15 12:33:02;;;;;;;6.90;4.35;;;33.60;46.50;;;;;;4976663;28;20509;-64
2023/07/15 12:35:28;;;;;;;9.27;4.30;;;33.50;46.50;;;;;;4976965;28;20093;-65
2023/07/15 12:37:54;;;;;;;9.38;4.60;;;33.40;46.80;;;;;;4976353;28;20047;-65
2023/07/15 12:40:21;;;;;;;8.25;4.78;;;33.40;46.90;;;;;;4975649;28;20049;-64
2023/07/15 12:42:47;;;;;;;7.63;4.35;;;33.50;46.90;;;;;;4976983;28;20077;-66
2023/07/15 12:45:15;;;;;;;7.32;4.40;;;33.50;46.70;;;;;;4977118;28;20030;-66
2023/07/15 12:47:41;;;;;;;11.88;4.97;;;33.50;46.70;;;;;;4976396;28;20027;-67
2023/07/15 12:50:07;;;;;;;9.38;4.68;;;33.40;46.80;;;;;;4976170;28;20034;-67